»·PEaware :: TWA420 KBUR-KLAS

TWA420 :: KBUR-KLAS

FLIGHT INFORMATION

Flight Status: Arrived
Operator:
Trans World Airlines
More flights by this operator :: More flights under this callsign
Pilot: Ben F. (2808)
Aircraft: BOEING 727-200
(B722)
More flights by this aircraft type
Origin: KBUR Bob Hope-Burbank
United States
Destination: KLAS McCarran Intl
United States
More flights between these airports :: More routes between these airports
Route: +VNY3 DAG CLARR3
File this flight plan on PilotEdge
Remarks:
Altitude:
(Current/Filed)
27,000ft
Speed:
(Current/Filed)
450kts
Departed: 20-Sep-18 08:07 AM
Arrived: 20-Sep-18 08:50 AM
Distance/Time
Traveled:
194nm/0:42
Distance/Time
To Go:
Arrived

Flight Plot

Page will automatically refresh every two minutes.

Flight plan parsing failed; only flown route is shown


Map Options




Map Legend


Flown Route
Filed Route
Departure Airport
Arrival Airport
Navaid (VOR, NDB)
Fix

Horizontal Profiles

Position Reports

Time Latitude Longitude Heading Altitude Ground
Speed
20-Sep-18 07:53 34.196175 -118.355034 125 788ft 0kts
20-Sep-18 07:54 34.196175 -118.355034 125 788ft 0kts
20-Sep-18 07:55 34.196175 -118.355034 125 788ft 0kts
20-Sep-18 07:56 34.196175 -118.355034 125 788ft 0kts
20-Sep-18 07:57 34.196175 -118.355034 125 788ft 0kts
20-Sep-18 07:58 34.196175 -118.355034 125 788ft 0kts
20-Sep-18 07:59 34.196216 -118.355105 125 788ft 2kts
20-Sep-18 08:00 34.196689 -118.355500 179 788ft 2kts
20-Sep-18 08:01 34.197179 -118.355145 245 788ft 2kts
20-Sep-18 08:02 34.197229 -118.354831 269 788ft 0kts
20-Sep-18 08:03 34.197229 -118.354831 269 788ft 0kts
20-Sep-18 08:04 34.197229 -118.354844 269 788ft 1kts
20-Sep-18 08:05 34.201535 -118.356111 348 788ft 23kts
20-Sep-18 08:06 34.207855 -118.357872 347 788ft 23kts
20-Sep-18 08:07 34.211578 -118.359089 315 788ft 0kts
20-Sep-18 08:08 34.211682 -118.360291 172 788ft 9kts
20-Sep-18 08:09 34.200459 -118.357201 166 789ft 145kts
20-Sep-18 08:10 34.168255 -118.366194 227 2334ft 170kts
20-Sep-18 08:11 34.128838 -118.415332 225 4122ft 249kts
20-Sep-18 08:12 34.151522 -118.497299 352 5991ft 269kts
20-Sep-18 08:13 34.211284 -118.476541 23 7156ft 280kts
20-Sep-18 08:14 34.283650 -118.441007 23 10232ft 290kts
20-Sep-18 08:15 34.379877 -118.393494 23 11925ft 359kts
20-Sep-18 08:16 34.441257 -118.326781 61 13785ft 373kts
20-Sep-18 08:17 34.514256 -118.235789 46 15888ft 389kts
20-Sep-18 08:18 34.584644 -118.133983 51 17852ft 401kts
20-Sep-18 08:19 34.634038 -118.015486 81 19734ft 403kts
20-Sep-18 08:20 34.650097 -117.880507 83 21363ft 410kts
20-Sep-18 08:21 34.669180 -117.742731 73 22732ft 419kts
20-Sep-18 08:22 34.704023 -117.603867 73 23022ft 452kts
20-Sep-18 08:23 34.742700 -117.452118 73 23023ft 487kts
20-Sep-18 08:24 34.782190 -117.296562 73 24441ft 458kts
20-Sep-18 08:25 34.820091 -117.146247 73 25029ft 490kts
20-Sep-18 08:26 34.861427 -116.981415 73 25015ft 528kts
20-Sep-18 08:27 34.903726 -116.811281 71 24985ft 507kts
20-Sep-18 08:28 34.943051 -116.652997 74 24988ft 474kts
20-Sep-18 08:29 35.009711 -116.522455 47 24998ft 451kts
20-Sep-18 08:30 35.094548 -116.414291 45 25021ft 439kts
20-Sep-18 08:31 35.175253 -116.313414 46 24157ft 429kts
20-Sep-18 08:32 35.256624 -116.211595 46 22348ft 415kts
20-Sep-18 08:33 35.334829 -116.113477 46 19788ft 395kts
20-Sep-18 08:34 35.408329 -116.021011 46 16976ft 374kts
20-Sep-18 08:35 35.479213 -115.931626 46 14687ft 360kts
20-Sep-18 08:36 35.547318 -115.845563 46 13346ft 342kts
20-Sep-18 08:37 35.612363 -115.763200 45 13004ft 322kts
20-Sep-18 08:38 35.672610 -115.686635 47 13004ft 301kts
20-Sep-18 08:39 35.724041 -115.608203 51 13014ft 295kts
20-Sep-18 08:40 35.775380 -115.528161 58 13007ft 299kts
20-Sep-18 08:41 35.815931 -115.437998 61 11807ft 304kts
20-Sep-18 08:42 35.855276 -115.348611 61 10329ft 295kts
20-Sep-18 08:43 35.907387 -115.278423 40 8843ft 280kts
20-Sep-18 08:44 35.966856 -115.215730 40 7356ft 280kts
20-Sep-18 08:45 36.007409 -115.144357 90 5873ft 258kts
20-Sep-18 08:46 36.006843 -115.061737 90 4987ft 228kts
20-Sep-18 08:47 36.006203 -114.986056 87 4684ft 215kts
20-Sep-18 08:48 36.048565 -114.954739 3 3931ft 188kts
20-Sep-18 08:49 36.074511 -114.994533 265 3973ft 187kts
20-Sep-18 08:50 36.073664 -115.050685 270 3366ft 148kts
20-Sep-18 08:51 36.073655 -115.100981 271 2599ft 147kts
20-Sep-18 08:52 36.073714 -115.143144 283 2153ft 38kts
20-Sep-18 08:53 36.077223 -115.146565 347 2153ft 20kts
20-Sep-18 08:54 36.078218 -115.141653 91 2153ft 20kts
20-Sep-18 08:55 36.079804 -115.140599 56 2153ft 4kts

Navigation Log

Ident Type
Flight plan parsing failed, navigation log unavailable